createdAt,value
2022-11-05T00:17:09.424Z,7.1
2022-11-05T00:37:10.787Z,6.8
2022-11-05T00:57:12.429Z,6.5
2022-11-05T01:07:13.276Z,6.3
2022-11-05T01:17:14.051Z,6.4
2022-11-05T01:27:14.925Z,6.3
2022-11-05T01:37:15.774Z,6.3
2022-11-05T01:47:16.402Z,6.4
2022-11-05T01:57:16.811Z,6.2
2022-11-05T02:07:17.537Z,6.3
2022-11-05T02:57:20.013Z,5.8
2022-11-05T03:37:22.008Z,5.9
2022-11-05T04:07:23.552Z,5.8
2022-11-05T04:27:24.621Z,5.7
2022-11-05T04:37:24.770Z,5.7
2022-11-05T04:47:24.781Z,5.7
2022-11-05T04:57:25.198Z,5.5
2022-11-05T05:07:25.733Z,5.6
2022-11-05T05:17:26.678Z,5.5
2022-11-05T05:37:27.694Z,5.6
2022-11-05T05:57:28.217Z,5.3
2022-11-05T06:07:33.094Z,5.4
2022-11-05T06:17:29.597Z,5.4
2022-11-05T06:37:30.802Z,5.3
2022-11-05T06:47:31.240Z,5.3
2022-11-05T06:57:31.595Z,5.4
2022-11-05T07:07:32.092Z,5.5
2022-11-05T07:17:33.080Z,5.7
2022-11-05T07:27:33.511Z,5.8
2022-11-05T07:37:34.327Z,6.2
2022-11-05T07:57:35.106Z,6.6
2022-11-05T08:07:35.753Z,6.9
2022-11-05T08:17:35.831Z,7.1
2022-11-05T08:27:36.670Z,7.8
2022-11-05T09:27:40.586Z,9.8
2022-11-05T09:47:41.578Z,10.2
2022-11-05T11:07:45.406Z,11.3
2022-11-05T11:37:46.365Z,11.5
2022-11-05T11:47:46.669Z,11.7
2022-11-05T11:57:47.257Z,11.7
2022-11-05T12:07:47.760Z,13.1
2022-11-05T12:17:48.147Z,12.1
2022-11-05T12:27:48.592Z,12.3
2022-11-05T12:37:48.710Z,11.9
2022-11-05T12:47:48.893Z,11.7
2022-11-05T12:57:49.556Z,11.6
2022-11-05T13:07:50.027Z,11.5
2022-11-05T13:27:51.011Z,11.6
2022-11-05T13:37:51.141Z,11.5
2022-11-05T13:47:52.114Z,11.3
2022-11-05T13:57:53.030Z,11.3
2022-11-05T14:07:53.663Z,11.4
2022-11-05T14:17:54.171Z,11.2
2022-11-05T14:27:55.174Z,10.9
2022-11-05T14:37:55.983Z,10.9
2022-11-05T14:47:56.243Z,10.9
2022-11-05T14:57:56.665Z,10.8
2022-11-05T15:07:57.072Z,10.7
2022-11-05T15:17:57.825Z,10.6
2022-11-05T15:27:57.981Z,10.5
2022-11-05T15:38:02.326Z,10.4
2022-11-05T15:47:59.255Z,10.3
2022-11-05T15:48:04.536Z,10.3
2022-11-05T15:58:04.797Z,10.3
2022-11-05T16:08:04.947Z,10.3
2022-11-05T16:18:05.473Z,10.2
2022-11-05T16:28:05.662Z,10.1
2022-11-05T16:38:05.784Z,10
2022-11-05T16:48:06.784Z,9.9
2022-11-05T16:58:07.586Z,9.9
2022-11-05T17:08:08.007Z,10
2022-11-05T17:18:11.658Z,10
2022-11-05T17:28:09.722Z,10
2022-11-05T17:48:11.263Z,10
2022-11-05T17:58:11.951Z,10.1
2022-11-05T18:08:12.909Z,10.1
2022-11-05T18:18:13.374Z,10.1
2022-11-05T18:28:13.743Z,10.2
2022-11-05T18:38:14.436Z,10.1
2022-11-05T18:48:15.421Z,10.2
2022-11-05T18:58:15.708Z,10.1
2022-11-05T19:08:16.264Z,10.1
2022-11-05T19:18:16.704Z,10
2022-11-05T19:28:17.527Z,10
2022-11-05T19:38:18.097Z,10
2022-11-05T19:48:19.572Z,10
2022-11-05T20:08:19.580Z,9.9
2022-11-05T20:18:19.659Z,9.8
2022-11-05T20:28:19.791Z,9.9
2022-11-05T20:38:19.902Z,9.9
2022-11-05T20:48:20.870Z,9.8
2022-11-05T20:58:21.284Z,9.7
2022-11-05T21:08:21.823Z,9.7
2022-11-05T21:18:21.928Z,9.7
2022-11-05T21:28:22.868Z,9.7
2022-11-05T21:38:23.064Z,9.5
2022-11-05T21:48:23.167Z,9.5
2022-11-05T21:58:23.752Z,9.5
2022-11-05T22:08:23.799Z,9.4
2022-11-05T22:18:24.172Z,9.3
2022-11-05T22:28:24.810Z,9.3
2022-11-05T22:38:25.110Z,9.3
2022-11-05T22:48:25.914Z,9.2
2022-11-05T22:58:26.481Z,9
2022-11-05T23:08:27.016Z,8.8
2022-11-05T23:18:28.025Z,8.7
2022-11-05T23:28:28.202Z,8.7
2022-11-05T23:38:28.947Z,8.7
2022-11-05T23:48:29.934Z,8.8
2022-11-05T23:58:30.832Z,8.8
